Time;durP1;ratioP1;P1;durP2;ratioP2;P2;SDS_P1;SDS_P2;PMS_P1;PMS_P2;Temp;Humidity;BMP_temperature;BMP_pressure;BME280_temperature;BME280_humidity;BME280_pressure;Samples;Min_cycle;Max_cycle;Signal;HPM_P1;HPM_P2
2024/01/24 00:00:45;;;;;;;8.27;2.85;;;;;;;-144.05;87.14;56972.03;5091677;28;20024;-79
2024/01/24 00:03:11;;;;;;;12.52;3.10;;;;;;;-144.05;87.63;56976.28;5091996;28;20028;-79
2024/01/24 00:05:37;;;;;;;8.60;3.65;;;;;;;-144.05;87.43;56974.16;5091579;28;20545;-80
2024/01/24 00:08:04;;;;;;;11.52;3.20;;;;;;;-144.05;87.10;56986.91;5101999;28;20042;-81
2024/01/24 00:10:30;;;;;;;7.50;2.63;;;;;;;-144.05;87.25;56967.78;5098363;28;20375;-80
2024/01/24 00:12:56;;;;;;;12.57;3.55;;;;;;;-144.05;87.20;56950.78;5092856;28;20024;-79
2024/01/24 00:15:22;;;;;;;8.95;3.15;;;;;;;-144.05;88.21;56974.16;5092766;28;20036;-80
2024/01/24 00:17:49;;;;;;;12.45;3.33;;;12.80;99.90;;;-144.05;87.98;56972.03;5098161;28;20020;-81
2024/01/24 00:20:15;;;;;;;8.43;3.80;;;;;;;-144.05;88.17;56967.78;5106884;28;20181;-80
2024/01/24 00:22:42;;;;;;;7.63;2.80;;;;;;;-144.05;88.38;56946.53;5096208;28;20149;-80
2024/01/24 00:25:08;;;;;;;9.02;3.65;;;8.20;99.90;;;-144.05;89.06;56963.53;5101204;28;20016;-81
2024/01/24 00:27:34;;;;;;;14.88;4.25;;;;;;;-144.05;89.76;56963.53;5093510;28;20024;-80
2024/01/24 00:30:00;;;;;;;13.07;3.97;;;;;;;-144.05;90.22;56942.28;5101051;28;20047;-80
2024/01/24 00:32:26;;;;;;;11.75;3.50;;;;;;;-144.05;90.24;56963.53;5091107;28;20035;-80
2024/01/24 00:34:53;;;;;;;10.85;3.40;;;;;;;-144.05;90.19;56940.16;5092263;28;20107;-80
2024/01/24 00:37:19;;;;;;;10.25;3.15;;;;;;;-144.05;90.39;56965.66;5091226;28;20024;-81
2024/01/24 00:39:47;;;;;;;10.25;3.30;;;;;;;-144.05;90.19;56991.13;5100142;28;20032;-80
2024/01/24 00:42:13;;;;;;;7.60;3.10;;;;;;;-144.05;89.72;56972.03;5092925;28;20043;-80
2024/01/24 00:44:40;;;;;;;8.20;3.05;;;7.70;99.90;;;-144.05;90.02;56972.03;5091972;28;20028;-80
2024/01/24 00:47:06;;;;;;;4.95;2.78;;;;;;;-144.05;89.46;56963.53;5089991;28;20453;-78
2024/01/24 00:49:32;;;;;;;12.23;3.72;;;;;;;-144.05;89.51;56972.03;5092272;28;20028;-79
2024/01/24 00:51:58;;;;;;;8.57;4.32;;;;;;;-144.05;89.42;56950.78;5092020;28;20039;-81
2024/01/24 00:54:24;;;;;;;8.75;2.90;;;8.10;99.90;;;-144.05;89.03;56946.53;5092104;28;20032;-81
2024/01/24 00:56:50;;;;;;;11.05;3.00;;;8.10;99.90;;;-144.05;88.98;56955.03;5101822;28;20033;-81
2024/01/24 00:59:16;;;;;;;4.97;2.70;;;8.30;99.90;;;-144.05;88.17;56933.78;5102933;28;20024;-80
2024/01/24 01:01:42;;;;;;;13.25;3.30;;;;;;;-144.05;88.21;56961.41;5091867;28;20447;-78
2024/01/24 01:04:08;;;;;;;6.45;2.75;;;;;;;-144.05;88.17;56961.41;5099562;28;20044;-81
2024/01/24 01:06:34;;;;;;;6.22;2.50;;;8.50;99.90;;;-144.05;88.38;56938.03;5090670;28;20489;-80
2024/01/24 01:09:01;;;;;;;8.35;2.95;;;;;;;-144.05;87.85;56967.78;5090558;28;20124;-79
2024/01/24 01:11:27;;;;;;;6.75;2.90;;;;;;;-144.05;88.45;56969.91;5090729;28;20408;-80
2024/01/24 01:13:53;;;;;;;6.65;2.53;;;;;;;-144.05;88.07;56957.16;5090192;28;21510;-79
2024/01/24 01:16:20;;;;;;;9.65;3.03;;;;;;;-144.05;87.85;56952.91;5091749;28;20020;-80
2024/01/24 01:18:46;;;;;;;5.57;2.47;;;;;;;-144.05;87.27;56963.53;5090181;28;20028;-80
2024/01/24 01:21:12;;;;;;;8.82;3.20;;;;;;;-144.05;87.63;56961.41;5091117;28;20119;-79
2024/01/24 01:23:38;;;;;;;6.45;2.55;;;;;;;-144.05;87.04;56955.03;5091443;28;20025;-78
2024/01/24 01:26:04;;;;;;;7.68;2.80;;;;;;;-144.05;87.12;56969.91;5092167;28;20024;-79
2024/01/24 01:28:31;;;;;;;6.75;2.75;;;;;;;-144.05;87.04;56946.53;5090531;28;20027;-80
2024/01/24 01:30:57;;;;;;;8.95;3.10;;;;;;;-144.05;86.25;56942.28;5091373;28;20085;-78
2024/01/24 01:33:23;;;;;;;4.40;2.50;;;;;;;-144.05;85.82;56972.03;5091266;28;20028;-80
2024/01/24 01:35:49;;;;;;;6.63;2.17;;;;;;;-144.05;85.27;56976.28;5090265;28;20103;-80
2024/01/24 01:38:15;;;;;;;3.97;2.25;;;;;;;-144.05;84.66;56963.53;5091360;28;20406;-78
2024/01/24 01:40:42;;;;;;;4.13;2.13;;;;;;;-144.05;84.60;56991.13;5093800;28;20028;-83
2024/01/24 01:43:15;;;;;;;4.75;1.70;;;12.60;99.90;;;-144.05;83.87;56972.03;5095645;28;20024;-78
2024/01/24 01:45:43;;;;;;;5.47;1.98;;;12.60;99.90;;;-144.05;83.67;56948.66;5094715;28;20504;-78
2024/01/24 01:48:11;;;;;;;5.47;2.30;;;12.70;99.90;;;-144.05;83.61;56965.66;5100775;28;20054;-81
2024/01/24 01:50:38;;;;;;;9.40;2.00;;;8.70;99.90;;;-144.05;83.26;56965.66;5099410;28;20548;-79
2024/01/24 01:53:07;;;;;;;5.90;2.28;;;15.10;99.90;;;-144.05;82.89;56972.03;5092281;28;20051;-81
2024/01/24 01:55:36;;;;;;;6.40;2.53;;;13.30;99.90;;;-144.05;82.38;56965.66;5107617;28;20081;-80
2024/01/24 01:58:03;;;;;;;4.70;1.95;;;;;;;-144.05;81.85;56965.66;5092816;28;20016;-79
2024/01/24 02:00:29;;;;;;;4.53;1.75;;;;;;;-144.05;82.04;56959.28;5097180;28;20110;-79
2024/01/24 02:02:55;;;;;;;3.38;1.50;;;;;;;-144.05;82.04;56938.03;5091101;28;20028;-80
2024/01/24 02:05:22;;;;;;;7.28;2.28;;;;;;;-144.05;81.44;56955.03;5090722;28;20031;-80
2024/01/24 02:07:48;;;;;;;4.93;1.45;;;;;;;-144.05;80.94;56980.53;5091696;28;20036;-81
2024/01/24 02:10:15;;;;;;;5.90;2.38;;;13.00;99.90;;;-144.05;80.71;56976.28;5107516;28;20032;-83
2024/01/24 02:12:41;;;;;;;6.53;1.88;;;;;;;-144.05;82.53;56959.28;5103263;28;20036;-80
2024/01/24 02:15:11;;;;;;;5.15;1.60;;;;;;;-144.05;83.43;56980.53;5106535;28;20032;-83
2024/01/24 02:17:37;;;;;;;4.53;1.52;;;;;;;-144.05;84.62;56948.66;5098058;28;20095;-82
2024/01/24 02:20:09;;;;;;;8.30;1.77;;;12.50;99.90;;;-144.05;85.01;56952.91;5097958;28;20107;-82
2024/01/24 02:22:36;;;;;;;3.38;1.48;;;;;;;-144.05;85.64;56955.03;5099800;28;20029;-82
2024/01/24 02:25:03;;;;;;;4.25;1.77;;;;;;;-144.05;85.61;56952.91;5108629;28;20050;-81
2024/01/24 02:27:29;;;;;;;5.05;2.35;;;;;;;-144.05;85.08;56955.03;5092298;28;20077;-80
2024/01/24 02:29:58;;;;;;;7.03;1.63;;;12.60;99.90;;;-144.05;84.57;56955.03;5091109;28;20111;-79
2024/01/24 02:32:24;;;;;;;5.07;1.30;;;;;;;-144.05;84.03;56965.66;5092026;28;20028;-80
2024/01/24 02:34:50;;;;;;;3.10;1.40;;;;;;;-144.05;83.24;56978.41;5090732;28;20069;-81
2024/01/24 02:37:19;;;;;;;4.70;1.33;;;;;;;-144.05;83.13;56946.53;5092156;28;20084;-80
2024/01/24 02:39:47;;;;;;;3.22;1.40;;;;;;;-144.05;83.24;56944.41;5090903;28;20028;-79
2024/01/24 02:42:13;;;;;;;3.00;1.42;;;;;;;-144.05;83.92;56982.66;5090143;28;20031;-81
2024/01/24 02:44:39;;;;;;;1.25;1.00;;;;;;;-144.05;84.40;56955.03;5089556;28;20024;-81
2024/01/24 02:47:06;;;;;;;4.15;1.23;;;;;;;-144.05;84.44;56965.66;5091129;28;20024;-80
2024/01/24 02:49:32;;;;;;;4.72;1.27;;;;;;;-144.05;84.33;56952.91;5090835;28;20080;-81
2024/01/24 02:52:02;;;;;;;3.15;1.17;;;;;;;-144.05;83.64;56963.53;5090947;28;20024;-80
2024/01/24 02:54:28;;;;;;;2.22;1.00;;;;;;;-144.05;83.33;56969.91;5090871;28;20031;-81
2024/01/24 02:56:54;;;;;;;5.07;1.05;;;;;;;-144.05;83.09;56997.50;5089353;28;20028;-79
2024/01/24 02:59:21;;;;;;;1.38;1.00;;;;;;;-144.05;82.39;56967.78;5089895;28;20488;-79
2024/01/24 03:01:47;;;;;;;3.92;1.10;;;;;;;-144.05;82.27;56959.28;5091265;28;20134;-79
2024/01/24 03:04:13;;;;;;;2.17;1.05;;;9.40;99.90;;;-144.05;81.40;56948.66;5091009;28;20028;-80
2024/01/24 03:06:41;;;;;;;1.00;0.88;;;13.10;99.90;;;-144.05;81.06;56965.66;5089579;28;20456;-81
2024/01/24 03:09:08;;;;;;;1.63;0.80;;;;;;;-144.05;79.88;56972.03;5090539;28;20093;-79
2024/01/24 03:11:34;;;;;;;1.48;0.88;;;;;;;-144.05;79.56;56955.03;5092510;28;20101;-78
2024/01/24 03:14:01;;;;;;;1.85;0.90;;;9.90;99.90;;;-144.05;78.73;56957.16;5111391;28;20024;-79
2024/01/24 03:16:27;;;;;;;2.40;0.75;;;;;;;-144.05;78.62;56946.53;5100700;28;20036;-80
2024/01/24 03:18:53;;;;;;;1.80;0.73;;;;;;;-144.05;77.83;56961.41;5094096;28;20024;-80
2024/01/24 03:21:20;;;;;;;0.80;0.80;;;;;;;-144.05;77.90;56982.66;5093685;28;20097;-77
2024/01/24 03:23:46;;;;;;;1.55;0.70;;;;;;;-144.05;77.86;56957.16;5093698;28;20077;-79
2024/01/24 03:26:16;;;;;;;1.10;0.50;;;10.30;99.90;;;-144.05;77.41;56972.03;5093509;28;20028;-79
2024/01/24 03:28:42;;;;;;;3.13;0.65;;;9.40;99.90;;;-144.05;77.08;56946.53;5093638;28;20020;-79
2024/01/24 03:31:09;;;;;;;3.85;1.25;;;;;;;-144.05;76.97;56938.03;5094943;28;20031;-81
2024/01/24 03:33:37;;;;;;;2.63;0.73;;;13.50;99.90;;;-144.05;77.38;56942.28;5094588;28;20101;-81
2024/01/24 03:36:04;;;;;;;1.52;0.45;;;;;;;-144.05;77.43;56957.16;5094806;28;20036;-81
2024/01/24 03:38:30;;;;;;;1.38;0.63;;;10.20;99.90;;;-144.05;77.95;56976.28;5094765;28;20488;-82
2024/01/24 03:40:56;;;;;;;0.73;0.50;;;;;;;-144.05;78.32;56978.41;5092821;28;20118;-81
2024/01/24 03:43:22;;;;;;;1.33;0.57;;;9.90;99.90;;;-144.05;78.43;56959.28;5094513;28;20123;-79
2024/01/24 03:45:48;;;;;;;1.20;0.80;;;9.60;99.90;;;-144.05;78.63;56961.41;5102034;28;20051;-79
2024/01/24 03:48:14;;;;;;;0.88;0.35;;;;;;;-144.05;79.39;56957.16;5102046;28;20131;-77
2024/01/24 03:50:40;;;;;;;1.17;0.63;;;;;;;-144.05;80.74;56957.16;5095222;28;20042;-79
2024/01/24 03:53:06;;;;;;;1.33;0.50;;;9.20;99.90;;;-144.05;81.86;56965.66;5097054;28;20024;-81
2024/01/24 03:55:32;;;;;;;2.22;0.40;;;;;;;-144.05;82.39;56946.53;5100105;28;20028;-80
2024/01/24 03:57:59;;;;;;;0.40;0.40;;;;;;;-144.05;82.65;56974.16;5095541;28;20035;-80
2024/01/24 04:00:25;;;;;;;1.88;0.47;;;8.70;99.90;;;-144.05;82.25;56946.53;5098164;28;20027;-80
2024/01/24 04:02:51;;;;;;;0.45;0.40;;;9.70;99.90;;;-144.05;79.79;56955.03;5097191;28;20032;-82
2024/01/24 04:05:17;;;;;;;1.67;0.50;;;;;;;-144.05;77.61;56931.66;5094760;28;20047;-81
2024/01/24 04:07:43;;;;;;;0.60;0.30;;;;;;;-144.05;79.05;56950.78;5095320;28;20400;-80
2024/01/24 04:10:10;;;;;;;1.58;0.70;;;;;;;-144.05;82.52;56944.41;5102737;28;20047;-81
2024/01/24 04:12:35;;;;;;;2.47;0.55;;;9.10;99.90;;;-144.05;83.79;56961.41;5100672;28;20028;-81
2024/01/24 04:15:02;;;;;;;1.08;0.43;;;;;;;-144.05;85.01;56965.66;5093327;28;20390;-80
2024/01/24 04:17:28;;;;;;;0.65;0.65;;;15.00;99.90;;;-144.05;85.57;56940.16;5094099;28;20024;-77
2024/01/24 04:19:54;;;;;;;2.58;0.80;;;;;;;-144.05;85.84;56952.91;5092564;28;20032;-79
2024/01/24 04:22:20;;;;;;;0.80;0.57;;;;;;;-144.05;85.22;56933.78;5093944;28;20459;-82
2024/01/24 04:24:47;;;;;;;1.20;0.90;;;;;;;-144.05;85.11;56972.03;5093554;28;20021;-76
2024/01/24 04:27:14;;;;;;;0.70;0.70;;;;;;;-144.05;85.02;56952.91;5102545;28;20111;-81
2024/01/24 04:29:45;;;;;;;2.30;1.17;;;12.60;99.90;;;-144.05;85.05;56961.41;5094164;28;20024;-79
2024/01/24 04:32:11;;;;;;;3.03;1.20;;;;;;;-144.05;85.24;56969.91;5101974;28;20107;-79
2024/01/24 04:34:37;;;;;;;2.65;1.58;;;;;;;-144.05;85.94;56963.53;5093146;28;20042;-78
2024/01/24 04:37:03;;;;;;;5.78;1.02;;;;;;;-144.05;86.69;56938.03;5091634;28;20569;-78
2024/01/24 04:39:30;;;;;;;2.55;0.80;;;;;;;-144.05;86.15;56967.78;5093218;28;20028;-78
2024/01/24 04:41:57;;;;;;;1.60;0.60;;;;;;;-144.05;85.34;56965.66;5093010;28;20442;-80
2024/01/24 04:44:24;;;;;;;1.35;0.93;;;;;;;-144.05;83.92;56969.91;5094098;28;20051;-77
2024/01/24 04:46:50;;;;;;;1.25;0.60;;;;;;;-144.05;83.46;56978.41;5094172;28;20028;-79
2024/01/24 04:49:16;;;;;;;1.45;0.47;;;;;;;-144.05;82.36;56944.41;5108419;28;20077;-79
2024/01/24 04:51:42;;;;;;;2.60;0.50;;;;;;;-144.05;81.31;56999.63;5101430;28;20160;-80
2024/01/24 04:54:08;;;;;;;2.25;0.50;;;;;;;-144.05;82.25;56969.91;5115370;28;20031;-79
2024/01/24 04:56:35;;;;;;;0.73;0.60;;;;;;;-144.05;81.49;56972.03;5129308;28;20118;-79
2024/01/24 04:59:01;;;;;;;2.85;0.80;;;;;;;-144.05;81.22;56984.78;5124210;28;20032;-80
2024/01/24 05:01:28;;;;;;;1.42;0.60;;;;;;;-144.05;81.00;56976.28;5094953;28;20035;-79
2024/01/24 05:03:55;;;;;;;3.03;1.20;;;;;;;-144.05;80.72;56967.78;5092951;28;20059;-80
2024/01/24 05:06:20;;;;;;;2.33;0.60;;;8.90;99.90;;;-144.05;80.47;56978.41;5092669;28;20460;-79
2024/01/24 05:08:47;;;;;;;2.53;0.60;;;;;;;-144.05;79.95;56967.78;5094153;28;20028;-82
2024/01/24 05:11:12;;;;;;;1.42;0.57;;;9.10;99.90;;;-144.05;79.08;56980.53;5095398;28;20032;-81
2024/01/24 05:13:39;;;;;;;3.78;0.80;;;;;;;-144.05;78.21;56959.28;5094284;28;20035;-80
2024/01/24 05:16:05;;;;;;;1.80;0.50;;;9.00;99.90;;;-144.05;77.05;56959.28;5095274;28;20024;-81
2024/01/24 05:18:32;;;;;;;1.10;0.40;;;;;;;-144.05;76.43;56950.78;5095421;28;20127;-80
2024/01/24 05:20:58;;;;;;;3.33;0.40;;;;;;;-144.05;75.55;56961.41;5095112;28;20489;-80
2024/01/24 05:23:25;;;;;;;1.83;0.60;;;;;;;-144.05;75.72;56963.53;5095018;28;20032;-81
2024/01/24 05:25:51;;;;;;;2.00;0.65;;;9.20;99.90;;;-144.05;74.73;56955.03;5096202;28;20023;-81
2024/01/24 05:28:18;;;;;;;2.58;0.60;;;;;;;-144.05;74.05;56967.78;5100388;28;20020;-80
2024/01/24 05:30:44;;;;;;;3.85;1.35;;;9.40;99.90;;;-144.05;73.51;56976.28;5113919;28;20042;-79
2024/01/24 05:33:10;;;;;;;4.28;1.00;;;;;;;-144.05;73.95;56974.16;5106001;28;20044;-79
2024/01/24 05:35:36;;;;;;;1.80;0.60;;;9.00;99.90;;;-144.05;74.11;56957.16;5107099;28;20028;-80
2024/01/24 05:38:03;;;;;;;3.03;1.05;;;;;;;-144.05;75.91;56955.03;5107707;28;20043;-79
2024/01/24 05:40:29;;;;;;;5.68;0.98;;;;;;;-144.05;76.83;56974.16;5106386;28;20024;-79
2024/01/24 05:42:55;;;;;;;6.97;1.30;;;;;;;-144.05;77.36;56957.16;5092602;28;20126;-77
2024/01/24 05:45:23;;;;;;;5.07;1.27;;;12.20;99.90;;;-144.05;76.19;56972.03;5093559;28;20024;-81
2024/01/24 05:47:49;;;;;;;8.88;1.92;;;;;;;-144.05;75.63;56959.28;5091743;28;20016;-79
2024/01/24 05:50:16;;;;;;;5.25;1.48;;;;;;;-144.05;74.43;56980.53;5095674;28;20020;-78
2024/01/24 05:52:44;;;;;;;7.18;1.52;;;12.40;99.90;;;-144.05;73.13;56967.78;5101652;28;20047;-77
2024/01/24 05:55:11;;;;;;;7.60;1.50;;;;;;;-144.05;72.54;56976.28;5109030;28;20077;-78
2024/01/24 05:57:39;;;;;;;8.63;2.10;;;;;;;-144.05;71.94;56957.16;5109145;28;20065;-79
2024/01/24 06:00:13;;;;;;;10.65;2.15;;;12.30;99.90;;;-144.05;71.20;56980.53;5092746;28;20024;-78
2024/01/24 06:02:40;;;;;;;12.07;1.60;;;8.70;99.90;;;-144.05;70.81;56965.66;5091252;28;20040;-77
2024/01/24 06:05:10;;;;;;;11.50;2.63;;;8.10;99.90;;;-144.05;70.16;56963.53;5092728;28;20043;-77
2024/01/24 06:07:36;;;;;;;10.95;1.83;;;12.40;99.90;;;-144.05;69.77;56967.78;5092368;28;20048;-78
2024/01/24 06:10:03;;;;;;;9.23;2.35;;;;;;;-144.05;69.10;56967.78;5093258;28;20100;-79
2024/01/24 06:12:29;;;;;;;14.73;2.63;;;;;;;-144.05;69.83;56986.91;5091784;28;20024;-78
2024/01/24 06:14:55;;;;;;;11.70;2.10;;;;;;;-144.05;69.37;56969.91;5091131;28;20028;-78
2024/01/24 06:17:22;;;;;;;15.90;2.72;;;12.10;99.90;;;-144.05;68.92;56974.16;5099652;28;20031;-78
2024/01/24 06:19:50;;;;;;;10.43;2.40;;;12.50;99.90;;;-144.05;69.08;56950.78;5098684;28;20028;-78
2024/01/24 06:22:17;;;;;;;13.95;2.42;;;7.90;99.90;;;-144.05;68.84;56986.91;5100043;28;20020;-79
2024/01/24 06:24:44;;;;;;;15.88;2.60;;;8.70;99.90;;;-144.05;69.46;56989.00;5090969;28;20043;-78
2024/01/24 06:27:11;;;;;;;15.98;3.90;;;8.80;99.90;;;-144.05;69.30;56986.91;5090916;28;20024;-78
2024/01/24 06:29:37;;;;;;;15.25;2.72;;;;;;;-144.05;69.14;56959.28;5093498;28;20130;-77
2024/01/24 06:32:04;;;;;;;22.58;3.65;;;8.90;99.90;;;-144.05;69.19;56976.28;5094001;28;20030;-78
2024/01/24 06:34:30;;;;;;;12.65;2.35;;;;;;;-144.05;69.11;56952.91;5097375;28;20032;-82
2024/01/24 06:36:56;;;;;;;12.88;3.15;;;9.10;99.90;;;-144.05;70.77;56974.16;5101015;28;20040;-79
2024/01/24 06:39:22;;;;;;;15.63;2.85;;;7.80;99.90;;;-144.05;71.48;56967.78;5099230;28;20031;-79
2024/01/24 06:41:48;;;;;;;21.73;3.08;;;;;;;-144.05;71.76;56967.78;5110443;28;20047;-77
2024/01/24 06:44:14;;;;;;;20.13;3.05;;;;;;;-144.05;72.79;56984.78;5111835;28;20046;-80
2024/01/24 06:46:44;;;;;;;14.13;3.65;;;8.00;99.90;;;-144.05;72.45;56980.53;5118693;28;20024;-81
2024/01/24 06:49:10;;;;;;;12.27;2.95;;;8.20;99.90;;;-144.05;71.27;56952.91;5101381;28;20024;-80
2024/01/24 06:51:38;;;;;;;14.65;2.95;;;11.90;99.90;;;-144.05;67.55;56976.28;5099424;28;20048;-82
2024/01/24 06:54:06;;;;;;;21.42;3.47;;;8.30;99.90;;;-144.05;65.96;56997.50;5097288;28;20024;-80
2024/01/24 06:56:32;;;;;;;14.90;3.30;;;;;;;-144.05;66.14;56980.53;5104787;28;20027;-80
2024/01/24 06:58:59;;;;;;;17.30;3.33;;;;;;;-144.05;65.86;56972.03;5107377;28;20024;-79
2024/01/24 07:01:26;;;;;;;17.00;3.38;;;;;;;-144.05;65.63;56993.25;5099177;28;20107;-79
2024/01/24 07:03:52;;;;;;;18.35;4.68;;;7.80;99.90;;;-144.05;66.66;56980.53;5125376;28;20036;-80
2024/01/24 07:06:18;;;;;;;17.02;4.53;;;7.80;99.90;;;-144.05;66.42;56963.53;5101877;28;20056;-78
2024/01/24 07:08:44;;;;;;;20.17;3.65;;;;;;;-144.05;65.90;57001.75;5099698;28;20017;-77
2024/01/24 07:11:11;;;;;;;16.92;3.10;;;;;;;-144.05;65.97;56986.91;5096296;28;20165;-79
2024/01/24 07:13:37;;;;;;;12.30;2.63;;;;;;;-144.05;66.03;56957.16;5096431;28;20660;-76
2024/01/24 07:16:04;;;;;;;20.90;3.00;;;;;;;-144.05;67.22;56978.41;5104140;28;20039;-76
2024/01/24 07:18:34;;;;;;;20.25;3.83;;;11.60;99.90;;;-144.05;67.47;56980.53;5094319;28;20020;-78
2024/01/24 07:21:00;;;;;;;26.23;4.03;;;7.90;99.90;;;-144.05;67.05;56948.66;5095675;28;20028;-80
2024/01/24 07:23:27;;;;;;;17.83;3.97;;;;;;;-144.05;65.37;56982.66;5094624;28;20031;-78
2024/01/24 07:25:53;;;;;;;23.35;4.15;;;;;;;-144.05;65.64;56982.66;5103006;28;20020;-79
2024/01/24 07:28:19;;;;;;;21.33;4.72;;;7.30;99.90;;;-144.05;65.93;57010.25;5103257;27;20024;-79
2024/01/24 07:30:46;;;;;;;20.70;5.57;;;8.40;99.90;;;-144.05;66.35;56984.78;5103792;28;20057;-77
2024/01/24 07:33:12;;;;;;;23.33;4.40;;;14.80;99.90;;;-144.05;65.47;56976.28;5099947;28;20028;-79
2024/01/24 07:35:38;;;;;;;25.13;4.32;;;14.60;99.90;;;-144.05;66.65;56978.41;5104689;28;20028;-79
2024/01/24 07:38:06;;;;;;;21.48;5.13;;;7.80;99.90;;;-144.05;67.57;56972.03;5106316;28;20505;-78
2024/01/24 07:40:32;;;;;;;23.27;5.63;;;;;;;-144.05;68.52;56982.66;5114182;28;20088;-77
2024/01/24 07:42:58;;;;;;;22.98;4.35;;;14.90;99.90;;;-144.05;69.18;57012.38;5107633;28;20146;-75
2024/01/24 07:45:24;;;;;;;21.45;3.78;;;7.30;99.90;;;-144.05;68.47;56967.78;5129472;28;20036;-77
2024/01/24 07:47:51;;;;;;;27.17;5.47;;;14.70;99.90;;;-144.05;70.00;56993.25;5102765;28;20035;-82
2024/01/24 07:50:17;;;;;;;20.80;4.88;;;;;;;-144.05;71.79;56972.03;5096508;28;20023;-79
2024/01/24 07:52:43;;;;;;;31.60;5.93;;;;;;;-144.05;72.47;56967.78;5095977;28;20027;-76
2024/01/24 07:55:10;;;;;;;21.85;4.50;;;;;;;-144.05;73.50;56965.66;5094774;28;20514;-80
2024/01/24 07:57:37;;;;;;;22.48;5.20;;;;;;;-144.05;73.73;56976.28;5096566;28;20027;-77
2024/01/24 08:00:04;;;;;;;23.80;4.75;;;;;;;-144.05;75.18;56972.03;5094981;28;20028;-76
2024/01/24 08:02:31;;;;;;;24.30;4.95;;;;;;;-144.05;74.09;56989.00;5095899;28;20489;-77
2024/01/24 08:05:00;;;;;;;20.55;4.22;;;;;;;-144.05;71.74;56991.13;5093380;28;20464;-76
2024/01/24 08:07:26;;;;;;;18.42;3.55;;;;;;;-144.05;70.27;56995.38;5095839;28;20450;-77
2024/01/24 08:09:52;;;;;;;22.27;4.13;;;7.40;99.90;;;-144.05;67.96;56972.03;5096951;28;20020;-81
2024/01/24 08:12:19;;;;;;;29.90;5.20;;;;;;;-144.05;67.90;56999.63;5106752;28;20074;-77
2024/01/24 08:14:45;;;;;;;25.50;5.13;;;;;;;-144.05;64.99;56969.91;5100665;28;20024;-79
2024/01/24 08:17:11;;;;;;;23.42;5.95;;;;;;;-144.05;64.28;56982.66;5099516;28;20427;-79
2024/01/24 08:19:38;;;;;;;30.42;5.80;;;11.10;99.90;;;-144.05;63.84;56993.25;5098707;28;20056;-79
2024/01/24 08:22:05;;;;;;;35.85;7.78;;;;;;;-144.05;62.87;56995.38;5097728;28;20028;-77
2024/01/24 08:24:31;;;;;;;29.25;5.80;;;;;;;-144.05;62.43;57010.25;5097390;28;20024;-77
2024/01/24 08:26:58;;;;;;;25.55;5.07;;;;;;;-144.05;62.76;56976.28;5095322;28;20036;-80
2024/01/24 08:29:25;;;;;;;22.55;4.38;;;;;;;-144.05;62.26;56961.41;5096439;28;20062;-77
2024/01/24 08:31:52;;;;;;;29.25;6.15;;;;;;;-144.05;62.22;56989.00;5095181;28;20024;-76
2024/01/24 08:34:18;;;;;;;23.95;5.53;;;;;;;-144.05;62.43;56993.25;5094277;28;20027;-79
2024/01/24 08:36:44;;;;;;;32.88;5.90;;;;;;;-144.05;61.08;56982.66;5093085;28;20465;-78
2024/01/24 08:39:11;;;;;;;24.50;6.07;;;;;;;-144.05;60.23;57006.00;5093125;28;20020;-78
2024/01/24 08:41:37;;;;;;;28.15;5.65;;;7.20;99.90;;;-144.05;60.82;57001.75;5094750;28;20050;-77
2024/01/24 08:44:04;;;;;;;33.35;7.05;;;;;;;-144.05;60.73;56989.00;5092995;28;20545;-79
2024/01/24 08:46:31;;;;;;;30.08;5.43;;;;;;;-144.05;60.29;56976.28;5095241;28;20103;-77
2024/01/24 08:48:57;;;;;;;28.08;5.00;;;7.90;99.90;;;-144.05;60.78;56993.25;5094906;28;20020;-79
2024/01/24 08:51:25;;;;;;;23.67;5.05;;;14.40;99.90;;;-144.05;59.72;56974.16;5098656;28;20059;-78
2024/01/24 08:53:51;;;;;;;29.80;6.13;;;;;;;-144.05;59.72;57012.38;5096019;28;20026;-78
2024/01/24 08:56:18;;;;;;;25.60;5.50;;;11.20;99.90;;;-144.05;59.48;56974.16;5099695;28;20063;-81
2024/01/24 08:58:44;;;;;;;29.08;5.68;;;;;;;-144.05;60.02;56995.38;5100059;28;20016;-83
2024/01/24 09:01:10;;;;;;;38.25;6.93;;;;;;;-144.05;59.40;56959.28;5103333;28;20063;-77
2024/01/24 09:03:37;;;;;;;25.17;5.20;;;;;;;-144.05;60.03;56989.00;5097995;28;20530;-79
2024/01/24 09:06:03;;;;;;;28.80;4.95;;;7.90;99.90;;;-144.05;59.52;56976.28;5098431;28;20103;-79
2024/01/24 09:08:29;;;;;;;30.10;4.93;;;;;;;-144.05;60.10;56991.13;5097228;28;20020;-80
2024/01/24 09:10:55;;;;;;;25.67;5.35;;;;;;;-144.05;59.55;56980.53;5097040;28;20537;-80
2024/01/24 09:13:22;;;;;;;30.02;5.32;;;;;;;-144.05;60.29;56963.53;5095029;28;20469;-80
2024/01/24 09:15:48;;;;;;;22.10;5.20;;;7.30;99.90;;;-144.05;60.03;56957.16;5095427;28;20073;-79
2024/01/24 09:18:18;;;;;;;28.13;5.20;;;11.40;99.90;;;-144.05;59.72;56972.03;5099768;28;20024;-82
2024/01/24 09:20:44;;;;;;;27.85;5.35;;;14.50;99.90;;;-144.05;60.01;56995.38;5096546;28;20022;-78
2024/01/24 09:23:10;;;;;;;23.42;5.30;;;7.20;99.90;;;-144.05;59.10;56955.03;5096487;28;20032;-79
2024/01/24 09:25:36;;;;;;;26.33;5.30;;;;;;;-144.05;59.16;57001.75;5098235;28;20046;-80
2024/01/24 09:28:03;;;;;;;30.52;5.35;;;;;;;-144.05;59.34;56969.91;5113204;28;20085;-82
2024/01/24 09:30:30;;;;;;;28.55;5.93;;;14.60;99.90;;;-144.05;58.71;56963.53;5106167;28;20031;-78
2024/01/24 09:32:56;;;;;;;34.00;5.40;;;;;;;-144.05;57.66;56961.41;5107001;28;20436;-78
2024/01/24 09:35:22;;;;;;;22.90;4.72;;;;;;;-144.05;57.58;56972.03;5095944;28;20047;-80
2024/01/24 09:37:48;;;;;;;34.10;5.32;;;7.70;99.90;;;-144.05;57.82;56989.00;5096468;28;20141;-80
2024/01/24 09:40:16;;;;;;;27.92;5.60;;;11.30;99.90;;;-144.05;58.71;56978.41;5095154;28;20060;-81
2024/01/24 09:42:44;;;;;;;26.70;5.30;;;;;;;-144.05;58.27;56976.28;5095944;28;20020;-79
2024/01/24 09:45:14;;;;;;;22.00;5.07;;;;;;;-144.05;57.58;56997.50;5096832;28;20043;-79
2024/01/24 09:47:43;;;;;;;37.03;6.20;;;11.30;99.90;;;-144.05;58.85;56995.38;5101555;28;20077;-80
2024/01/24 09:50:11;;;;;;;33.72;5.30;;;;;;;-144.05;57.58;56984.78;5104642;28;20027;-80
2024/01/24 09:52:39;;;;;;;22.08;4.97;;;;;;;-144.05;57.54;56957.16;5106612;28;20289;-81
2024/01/24 09:55:13;;;;;;;29.33;6.35;;;14.30;99.90;;;-144.05;57.84;56982.66;5096765;28;20032;-81
2024/01/24 09:57:39;;;;;;;27.42;5.25;;;11.20;99.90;;;-144.05;57.76;56972.03;5097928;28;20031;-77
2024/01/24 10:00:09;;;;;;;30.90;5.65;;;7.10;99.90;;;-144.05;57.75;56982.66;5099196;28;20040;-81
2024/01/24 10:02:37;;;;;;;26.27;5.88;;;;;;;-144.05;58.09;56961.41;5109655;28;20020;-76
2024/01/24 10:05:13;;;;;;;27.73;5.18;;;7.20;99.90;;;-144.05;58.42;56993.25;5114102;28;20023;-81
2024/01/24 10:07:41;;;;;;;;;;;11.40;99.90;;;-144.05;57.77;56980.53;5104747;28;20066;-79
2024/01/24 10:10:12;;;;;;;24.83;4.28;;;7.40;99.90;;;-144.05;58.28;56980.53;5098186;28;20028;-75
2024/01/24 10:12:43;;;;;;;34.05;6.53;;;7.20;99.90;;;-144.05;59.05;56993.25;5099355;28;20459;-79
2024/01/24 10:15:13;;;;;;;26.70;5.13;;;11.10;99.90;;;-144.05;59.14;56976.28;5097630;28;20028;-80
2024/01/24 10:17:43;;;;;;;33.80;5.78;;;8.00;99.90;;;-144.05;58.51;56974.16;5096774;28;20070;-78
2024/01/24 10:20:11;;;;;;;28.88;5.50;;;7.40;99.90;;;-144.05;59.09;56974.16;5103033;28;20096;-78
2024/01/24 10:22:39;;;;;;;27.80;5.88;;;11.10;99.90;;;-144.05;58.93;57016.63;5114897;28;20020;-78
2024/01/24 10:25:06;;;;;;;27.77;5.18;;;;;;;-144.05;58.60;56993.25;5114920;28;20035;-78
2024/01/24 10:27:37;;;;;;;31.08;6.72;;;14.70;99.90;;;-144.05;59.72;56997.50;5104334;28;20062;-81
2024/01/24 10:30:13;;;;;;;19.65;4.72;;;7.90;99.90;;;-144.05;58.65;56967.78;5119591;28;20027;-78
2024/01/24 10:32:43;;;;;;;27.33;5.93;;;;;;;-144.05;58.77;56982.66;5115556;28;20043;-77
2024/01/24 10:35:09;;;;;;;25.63;4.15;;;7.20;99.90;;;-144.05;58.63;56980.53;5128575;28;20040;-76
2024/01/24 10:37:36;;;;;;;28.00;5.95;;;;;;;-144.05;58.90;56991.13;5106769;28;20115;-80
2024/01/24 10:40:05;;;;;;;27.23;5.38;;;7.00;99.90;;;-144.05;58.56;56976.28;5101426;28;20028;-80
2024/01/24 10:42:39;;;;;;;30.25;5.75;;;14.10;99.90;;;-144.05;58.60;56989.00;5115098;28;20028;-80
2024/01/24 10:45:06;;;;;;;31.00;6.15;;;7.60;99.90;;;-144.05;58.36;56967.78;5111024;28;20046;-79